sensor_id;sensor_type;location;lat;lon;timestamp;pressure;altitude;pressure_sealevel;temperature;humidity
8920;BME280;4495;42.644;23.274;2024-02-21T00:01:28;93607.72;;;2.95;78.01
8920;BME280;4495;42.644;23.274;2024-02-21T00:03:54;93602.34;;;2.91;78.15
8920;BME280;4495;42.644;23.274;2024-02-21T00:06:19;93613.13;;;2.94;78.35
8920;BME280;4495;42.644;23.274;2024-02-21T00:08:44;93607.50;;;2.97;78.19
8920;BME280;4495;42.644;23.274;2024-02-21T00:11:10;93601.28;;;2.82;79.03
8920;BME280;4495;42.644;23.274;2024-02-21T00:13:35;93596.66;;;2.79;77.22
8920;BME280;4495;42.644;23.274;2024-02-21T00:16:01;93589.75;;;2.90;77.34
8920;BME280;4495;42.644;23.274;2024-02-21T00:18:26;93600.03;;;2.90;77.34
8920;BME280;4495;42.644;23.274;2024-02-21T00:20:52;93600.78;;;2.90;78.39
8920;BME280;4495;42.644;23.274;2024-02-21T00:23:18;93591.81;;;2.83;78.04
8920;BME280;4495;42.644;23.274;2024-02-21T00:25:43;93591.53;;;2.84;78.96
8920;BME280;4495;42.644;23.274;2024-02-21T00:28:08;93598.72;;;2.82;77.33
8920;BME280;4495;42.644;23.274;2024-02-21T00:30:34;93587.94;;;2.85;78.51
8920;BME280;4495;42.644;23.274;2024-02-21T00:32:59;93594.66;;;2.91;77.56
8920;BME280;4495;42.644;23.274;2024-02-21T00:35:25;93592.06;;;2.91;76.26
8920;BME280;4495;42.644;23.274;2024-02-21T00:37:51;93587.94;;;2.90;76.84
8920;BME280;4495;42.644;23.274;2024-02-21T00:40:16;93597.47;;;2.90;76.79
8920;BME280;4495;42.644;23.274;2024-02-21T00:42:45;93595.38;;;2.87;78.19
8920;BME280;4495;42.644;23.274;2024-02-21T00:45:11;93593.59;;;2.92;77.97
8920;BME280;4495;42.644;23.274;2024-02-21T00:47:36;93582.81;;;2.90;76.66
8920;BME280;4495;42.644;23.274;2024-02-21T00:50:02;93586.94;;;2.91;77.81
8920;BME280;4495;42.644;23.274;2024-02-21T00:52:27;93579.72;;;2.94;77.87
8920;BME280;4495;42.644;23.274;2024-02-21T00:54:52;93576.91;;;2.90;76.86
8920;BME280;4495;42.644;23.274;2024-02-21T00:57:18;93568.94;;;2.91;78.29
8920;BME280;4495;42.644;23.274;2024-02-21T00:59:43;93578.47;;;2.96;77.47
8920;BME280;4495;42.644;23.274;2024-02-21T01:02:09;93570.72;;;2.91;78.08
8920;BME280;4495;42.644;23.274;2024-02-21T01:04:34;93564.31;;;2.99;76.07
8920;BME280;4495;42.644;23.274;2024-02-21T01:07:00;93567.41;;;3.01;75.32
8920;BME280;4495;42.644;23.274;2024-02-21T01:09:25;93566.88;;;3.04;75.84
8920;BME280;4495;42.644;23.274;2024-02-21T01:11:50;93562.25;;;3.06;75.29
8920;BME280;4495;42.644;23.274;2024-02-21T01:14:16;93563.81;;;3.02;76.51
8920;BME280;4495;42.644;23.274;2024-02-21T01:16:41;93559.69;;;3.06;74.73
8920;BME280;4495;42.644;23.274;2024-02-21T01:19:07;93557.66;;;3.03;75.29
8920;BME280;4495;42.644;23.274;2024-02-21T01:21:32;93556.59;;;3.04;74.82
8920;BME280;4495;42.644;23.274;2024-02-21T01:23:58;93558.41;;;3.03;74.23
8920;BME280;4495;42.644;23.274;2024-02-21T01:26:23;93556.38;;;3.05;75.83
8920;BME280;4495;42.644;23.274;2024-02-21T01:28:48;93559.69;;;3.06;74.60
8920;BME280;4495;42.644;23.274;2024-02-21T01:31:14;93560.47;;;3.01;75.08
8920;BME280;4495;42.644;23.274;2024-02-21T01:33:40;93556.88;;;2.92;77.09
8920;BME280;4495;42.644;23.274;2024-02-21T01:36:06;93559.69;;;2.96;75.49
8920;BME280;4495;42.644;23.274;2024-02-21T01:38:32;93551.97;;;2.90;75.60
8920;BME280;4495;42.644;23.274;2024-02-21T01:40:58;93550.44;;;2.89;75.46
8920;BME280;4495;42.644;23.274;2024-02-21T01:43:24;93544.78;;;2.87;77.00
8920;BME280;4495;42.644;23.274;2024-02-21T01:45:55;93547.09;;;2.89;75.72
8920;BME280;4495;42.644;23.274;2024-02-21T01:48:22;93541.47;;;2.92;75.77
8920;BME280;4495;42.644;23.274;2024-02-21T01:50:49;93541.19;;;2.94;74.62
8920;BME280;4495;42.644;23.274;2024-02-21T01:53:32;93534.50;;;2.87;74.83
8920;BME280;4495;42.644;23.274;2024-02-21T01:55:59;93539.38;;;2.89;75.17
8920;BME280;4495;42.644;23.274;2024-02-21T01:58:26;93536.56;;;2.90;75.33
8920;BME280;4495;42.644;23.274;2024-02-21T02:00:52;93531.16;;;2.97;74.60
8920;BME280;4495;42.644;23.274;2024-02-21T02:03:18;93533.22;;;3.00;74.13
8920;BME280;4495;42.644;23.274;2024-02-21T02:05:49;93533.75;;;2.97;74.98
8920;BME280;4495;42.644;23.274;2024-02-21T02:08:15;93539.16;;;3.01;74.40
8920;BME280;4495;42.644;23.274;2024-02-21T02:10:41;93541.97;;;3.09;74.14
8920;BME280;4495;42.644;23.274;2024-02-21T02:13:08;93538.63;;;3.04;73.68
8920;BME280;4495;42.644;23.274;2024-02-21T02:18:08;93531.94;;;3.03;74.06
8920;BME280;4495;42.644;23.274;2024-02-21T02:20:35;93530.91;;;2.99;74.49
8920;BME280;4495;42.644;23.274;2024-02-21T02:23:04;93528.06;;;3.00;75.21
8920;BME280;4495;42.644;23.274;2024-02-21T02:25:32;93534.25;;;3.04;74.85
8920;BME280;4495;42.644;23.274;2024-02-21T02:27:57;93525.50;;;3.00;74.05
8920;BME280;4495;42.644;23.274;2024-02-21T02:30:22;93525.78;;;2.99;74.43
8920;BME280;4495;42.644;23.274;2024-02-21T02:32:48;93521.16;;;3.01;75.33
8920;BME280;4495;42.644;23.274;2024-02-21T02:35:13;93517.03;;;3.00;73.78
8920;BME280;4495;42.644;23.274;2024-02-21T02:37:39;93517.78;;;3.00;74.06
8920;BME280;4495;42.644;23.274;2024-02-21T02:40:08;93513.19;;;2.97;73.14
8920;BME280;4495;42.644;23.274;2024-02-21T02:42:33;93515.00;;;2.91;74.67
8920;BME280;4495;42.644;23.274;2024-02-21T02:44:59;93512.94;;;2.83;74.68
8920;BME280;4495;42.644;23.274;2024-02-21T02:47:24;93512.94;;;2.83;74.55
8920;BME280;4495;42.644;23.274;2024-02-21T02:49:50;93514.22;;;2.86;73.83
8920;BME280;4495;42.644;23.274;2024-02-21T02:52:17;93517.81;;;2.85;74.63
8920;BME280;4495;42.644;23.274;2024-02-21T02:54:43;93518.84;;;2.94;74.29
8920;BME280;4495;42.644;23.274;2024-02-21T02:57:08;93523.72;;;2.96;73.00
8920;BME280;4495;42.644;23.274;2024-02-21T02:59:34;93517.28;;;2.98;73.50
8920;BME280;4495;42.644;23.274;2024-02-21T03:01:59;93524.75;;;3.00;74.66
8920;BME280;4495;42.644;23.274;2024-02-21T03:04:25;93523.47;;;2.97;74.31
8920;BME280;4495;42.644;23.274;2024-02-21T03:06:50;93523.19;;;2.94;74.50
8920;BME280;4495;42.644;23.274;2024-02-21T03:09:16;93516.28;;;2.94;73.67
8920;BME280;4495;42.644;23.274;2024-02-21T03:11:42;93520.38;;;2.95;74.61
8920;BME280;4495;42.644;23.274;2024-02-21T03:14:09;93527.31;;;2.95;75.07
8920;BME280;4495;42.644;23.274;2024-02-21T03:16:35;93526.28;;;2.96;73.74
8920;BME280;4495;42.644;23.274;2024-02-21T03:19:00;93528.88;;;3.01;73.69
8920;BME280;4495;42.644;23.274;2024-02-21T03:21:25;93529.09;;;3.04;72.50
8920;BME280;4495;42.644;23.274;2024-02-21T03:23:51;93534.00;;;3.01;73.29
8920;BME280;4495;42.644;23.274;2024-02-21T03:26:16;93535.53;;;3.02;73.54
8920;BME280;4495;42.644;23.274;2024-02-21T03:28:43;93538.09;;;3.02;72.13
8920;BME280;4495;42.644;23.274;2024-02-21T03:31:13;93541.97;;;3.04;72.83
8920;BME280;4495;42.644;23.274;2024-02-21T03:33:40;93535.53;;;3.07;72.07
8920;BME280;4495;42.644;23.274;2024-02-21T03:36:06;93538.09;;;3.02;73.61
8920;BME280;4495;42.644;23.274;2024-02-21T03:38:32;93538.63;;;3.14;71.70
8920;BME280;4495;42.644;23.274;2024-02-21T03:40:57;93540.94;;;3.05;71.20
8920;BME280;4495;42.644;23.274;2024-02-21T03:43:22;93539.41;;;3.09;70.88
8920;BME280;4495;42.644;23.274;2024-02-21T03:45:48;93541.72;;;3.06;71.30
8920;BME280;4495;42.644;23.274;2024-02-21T03:48:14;93548.91;;;3.04;72.00
8920;BME280;4495;42.644;23.274;2024-02-21T03:50:39;93551.19;;;3.00;72.96
8920;BME280;4495;42.644;23.274;2024-02-21T03:53:04;93551.22;;;2.95;72.05
8920;BME280;4495;42.644;23.274;2024-02-21T03:55:30;93550.69;;;2.93;73.14
8920;BME280;4495;42.644;23.274;2024-02-21T03:57:55;93542.75;;;2.89;72.49
8920;BME280;4495;42.644;23.274;2024-02-21T04:00:21;93551.22;;;2.95;72.24
8920;BME280;4495;42.644;23.274;2024-02-21T04:02:46;93547.88;;;2.89;73.43
8920;BME280;4495;42.644;23.274;2024-02-21T04:05:14;93540.94;;;2.95;72.28
8920;BME280;4495;42.644;23.274;2024-02-21T04:07:40;93551.47;;;2.99;72.81
8920;BME280;4495;42.644;23.274;2024-02-21T04:10:06;93547.09;;;2.89;72.42
8920;BME280;4495;42.644;23.274;2024-02-21T04:12:31;93550.97;;;2.97;73.59
8920;BME280;4495;42.644;23.274;2024-02-21T04:14:57;93548.41;;;2.91;73.63
8920;BME280;4495;42.644;23.274;2024-02-21T04:17:22;93542.97;;;2.93;72.53
8920;BME280;4495;42.644;23.274;2024-02-21T04:19:47;93540.41;;;2.98;72.09
8920;BME280;4495;42.644;23.274;2024-02-21T04:22:13;93535.53;;;2.97;71.40
8920;BME280;4495;42.644;23.274;2024-02-21T04:24:38;93543.25;;;2.97;72.76
8920;BME280;4495;42.644;23.274;2024-02-21T04:27:04;93541.69;;;2.96;72.62
8920;BME280;4495;42.644;23.274;2024-02-21T04:29:29;93546.31;;;2.94;73.04
8920;BME280;4495;42.644;23.274;2024-02-21T04:31:54;93538.88;;;2.92;72.94
8920;BME280;4495;42.644;23.274;2024-02-21T04:34:20;93538.09;;;2.86;71.57
8920;BME280;4495;42.644;23.274;2024-02-21T04:36:45;93537.06;;;2.82;71.45
8920;BME280;4495;42.644;23.274;2024-02-21T04:39:11;93542.44;;;2.76;72.46
8920;BME280;4495;42.644;23.274;2024-02-21T04:41:37;93546.31;;;2.68;71.92
8920;BME280;4495;42.644;23.274;2024-02-21T04:44:02;93540.41;;;2.67;72.61
8920;BME280;4495;42.644;23.274;2024-02-21T04:46:29;93549.13;;;2.66;71.54
8920;BME280;4495;42.644;23.274;2024-02-21T04:48:54;93545.53;;;2.73;72.06
8920;BME280;4495;42.644;23.274;2024-02-21T04:51:20;93548.88;;;2.68;71.83
8920;BME280;4495;42.644;23.274;2024-02-21T04:53:46;93552.22;;;2.63;71.66
8920;BME280;4495;42.644;23.274;2024-02-21T04:56:11;93551.97;;;2.75;71.43
8920;BME280;4495;42.644;23.274;2024-02-21T04:58:40;93555.06;;;2.72;71.08
8920;BME280;4495;42.644;23.274;2024-02-21T05:01:05;93548.34;;;2.61;71.93
8920;BME280;4495;42.644;23.274;2024-02-21T05:03:31;93540.66;;;2.61;72.27
8920;BME280;4495;42.644;23.274;2024-02-21T05:05:56;93549.63;;;2.58;70.74
8920;BME280;4495;42.644;23.274;2024-02-21T05:08:22;93550.94;;;2.56;71.94
8920;BME280;4495;42.644;23.274;2024-02-21T05:10:47;93551.94;;;2.55;71.69
8920;BME280;4495;42.644;23.274;2024-02-21T05:13:12;93552.69;;;2.50;71.16
8920;BME280;4495;42.644;23.274;2024-02-21T05:15:38;93563.72;;;2.50;71.22
8920;BME280;4495;42.644;23.274;2024-02-21T05:18:03;93562.72;;;2.52;71.40
8920;BME280;4495;42.644;23.274;2024-02-21T05:20:29;93564.53;;;2.61;71.31
8920;BME280;4495;42.644;23.274;2024-02-21T05:22:54;93567.38;;;2.65;72.61
8920;BME280;4495;42.644;23.274;2024-02-21T05:25:19;93565.56;;;2.60;71.62
8920;BME280;4495;42.644;23.274;2024-02-21T05:27:45;93566.84;;;2.63;72.06
8920;BME280;4495;42.644;23.274;2024-02-21T05:30:12;93564.81;;;2.65;72.44
8920;BME280;4495;42.644;23.274;2024-02-21T05:32:37;93559.41;;;2.66;71.54
8920;BME280;4495;42.644;23.274;2024-02-21T05:35:03;93567.88;;;2.72;72.96
8920;BME280;4495;42.644;23.274;2024-02-21T05:37:28;93560.44;;;2.76;71.69
8920;BME280;4495;42.644;23.274;2024-02-21T05:39:54;93565.84;;;2.79;72.50
8920;BME280;4495;42.644;23.274;2024-02-21T05:42:19;93564.31;;;2.88;71.98
8920;BME280;4495;42.644;23.274;2024-02-21T05:44:45;93565.09;;;2.99;72.87
8920;BME280;4495;42.644;23.274;2024-02-21T05:47:10;93568.19;;;3.01;71.38
8920;BME280;4495;42.644;23.274;2024-02-21T05:49:37;93571.50;;;3.02;71.60
8920;BME280;4495;42.644;23.274;2024-02-21T05:52:02;93573.31;;;3.06;71.41
8920;BME280;4495;42.644;23.274;2024-02-21T05:54:28;93572.78;;;3.04;70.93
8920;BME280;4495;42.644;23.274;2024-02-21T05:56:53;93582.31;;;3.04;72.34
8920;BME280;4495;42.644;23.274;2024-02-21T05:59:19;93582.81;;;3.16;71.55
8920;BME280;4495;42.644;23.274;2024-02-21T06:01:44;93582.84;;;3.21;72.06
8920;BME280;4495;42.644;23.274;2024-02-21T06:04:09;93586.94;;;3.32;70.93
8920;BME280;4495;42.644;23.274;2024-02-21T06:06:35;93587.97;;;3.37;69.29
8920;BME280;4495;42.644;23.274;2024-02-21T06:09:00;93595.41;;;3.38;70.73
8920;BME280;4495;42.644;23.274;2024-02-21T06:11:27;93590.53;;;3.42;70.44
8920;BME280;4495;42.644;23.274;2024-02-21T06:13:53;93590.28;;;3.48;70.13
8920;BME280;4495;42.644;23.274;2024-02-21T06:16:18;93596.19;;;3.49;71.49
8920;BME280;4495;42.644;23.274;2024-02-21T06:18:44;93597.97;;;3.64;70.77
8920;BME280;4495;42.644;23.274;2024-02-21T06:21:09;93607.50;;;3.63;70.69
8920;BME280;4495;42.644;23.274;2024-02-21T06:23:36;93602.84;;;3.75;71.54
8920;BME280;4495;42.644;23.274;2024-02-21T06:26:02;93605.66;;;3.74;69.75
8920;BME280;4495;42.644;23.274;2024-02-21T06:28:27;93602.63;;;3.57;69.67
8920;BME280;4495;42.644;23.274;2024-02-21T06:30:53;93613.91;;;3.66;71.30
8920;BME280;4495;42.644;23.274;2024-02-21T06:33:18;93610.84;;;3.64;70.96
8920;BME280;4495;42.644;23.274;2024-02-21T06:35:48;93612.13;;;3.56;71.19
8920;BME280;4495;42.644;23.274;2024-02-21T06:38:13;93607.47;;;3.73;69.82
8920;BME280;4495;42.644;23.274;2024-02-21T06:40:39;93613.63;;;3.78;70.58
8920;BME280;4495;42.644;23.274;2024-02-21T06:43:05;93609.78;;;3.75;70.38
8920;BME280;4495;42.644;23.274;2024-02-21T06:45:31;93621.34;;;3.78;70.50
8920;BME280;4495;42.644;23.274;2024-02-21T06:47:56;93621.38;;;3.72;69.65
8920;BME280;4495;42.644;23.274;2024-02-21T06:50:22;93632.19;;;3.74;70.52
8920;BME280;4495;42.644;23.274;2024-02-21T06:52:47;93631.91;;;3.81;71.08
8920;BME280;4495;42.644;23.274;2024-02-21T06:55:12;93631.13;;;3.86;70.09
8920;BME280;4495;42.644;23.274;2024-02-21T06:57:38;93632.38;;;3.93;69.57
8920;BME280;4495;42.644;23.274;2024-02-21T07:00:04;93638.06;;;3.95;69.48
8920;BME280;4495;42.644;23.274;2024-02-21T07:02:33;93630.84;;;3.98;70.34
8920;BME280;4495;42.644;23.274;2024-02-21T07:04:59;93627.75;;;4.01;70.36
8920;BME280;4495;42.644;23.274;2024-02-21T07:07:24;93623.13;;;3.98;70.88
8920;BME280;4495;42.644;23.274;2024-02-21T07:09:49;93627.47;;;4.02;69.26
8920;BME280;4495;42.644;23.274;2024-02-21T07:12:15;93629.00;;;4.13;69.84
8920;BME280;4495;42.644;23.274;2024-02-21T07:14:40;93626.44;;;4.13;69.55
8920;BME280;4495;42.644;23.274;2024-02-21T07:17:05;93626.44;;;4.08;69.86
8920;BME280;4495;42.644;23.274;2024-02-21T07:19:31;93625.94;;;4.01;70.10
8920;BME280;4495;42.644;23.274;2024-02-21T07:21:56;93636.78;;;3.93;70.58
8920;BME280;4495;42.644;23.274;2024-02-21T07:24:22;93639.06;;;4.00;70.36
8920;BME280;4495;42.644;23.274;2024-02-21T07:26:48;93639.34;;;3.98;71.48
8920;BME280;4495;42.644;23.274;2024-02-21T07:29:13;93640.84;;;4.20;69.39
8920;BME280;4495;42.644;23.274;2024-02-21T07:31:42;93636.19;;;4.22;70.11
8920;BME280;4495;42.644;23.274;2024-02-21T07:34:08;93629.69;;;4.40;69.42
8920;BME280;4495;42.644;23.274;2024-02-21T07:36:34;93634.63;;;4.26;70.02
8920;BME280;4495;42.644;23.274;2024-02-21T07:38:59;93641.72;;;4.54;68.53
8920;BME280;4495;42.644;23.274;2024-02-21T07:41:25;93639.13;;;4.59;69.25
8920;BME280;4495;42.644;23.274;2024-02-21T07:43:51;93639.63;;;4.67;68.69
8920;BME280;4495;42.644;23.274;2024-02-21T07:46:20;93641.75;;;4.49;67.56
8920;BME280;4495;42.644;23.274;2024-02-21T07:48:46;93639.63;;;4.67;68.55
8920;BME280;4495;42.644;23.274;2024-02-21T07:51:12;93638.28;;;4.74;67.46
8920;BME280;4495;42.644;23.274;2024-02-21T07:53:38;93631.63;;;4.68;67.80
8920;BME280;4495;42.644;23.274;2024-02-21T07:56:04;93634.91;;;4.79;67.38
8920;BME280;4495;42.644;23.274;2024-02-21T07:58:30;93639.59;;;4.72;68.72
8920;BME280;4495;42.644;23.274;2024-02-21T08:00:55;93629.94;;;4.93;68.00
8920;BME280;4495;42.644;23.274;2024-02-21T08:03:20;93635.09;;;4.98;67.13
8920;BME280;4495;42.644;23.274;2024-02-21T08:05:46;93631.66;;;5.08;67.23
8920;BME280;4495;42.644;23.274;2024-02-21T08:08:12;93631.56;;;4.78;68.25
8920;BME280;4495;42.644;23.274;2024-02-21T08:10:43;93629.69;;;4.94;69.18
8920;BME280;4495;42.644;23.274;2024-02-21T08:13:09;93633.28;;;5.33;66.28
8920;BME280;4495;42.644;23.274;2024-02-21T08:15:34;93632.59;;;5.22;66.83
8920;BME280;4495;42.644;23.274;2024-02-21T08:18:00;93628.69;;;5.30;65.95
8920;BME280;4495;42.644;23.274;2024-02-21T08:20:26;93627.97;;;5.58;64.60
8920;BME280;4495;42.644;23.274;2024-02-21T08:22:52;93626.84;;;5.65;64.10
8920;BME280;4495;42.644;23.274;2024-02-21T08:25:18;93629.09;;;5.42;63.57
8920;BME280;4495;42.644;23.274;2024-02-21T08:27:43;93620.13;;;5.34;63.71
8920;BME280;4495;42.644;23.274;2024-02-21T08:30:11;93622.63;;;5.45;62.39
8920;BME280;4495;42.644;23.274;2024-02-21T08:32:36;93624.69;;;5.48;62.36
8920;BME280;4495;42.644;23.274;2024-02-21T08:35:02;93622.44;;;5.70;62.40
8920;BME280;4495;42.644;23.274;2024-02-21T08:37:28;93617.72;;;5.77;63.59
8920;BME280;4495;42.644;23.274;2024-02-21T08:39:53;93626.56;;;6.00;59.24
8920;BME280;4495;42.644;23.274;2024-02-21T08:42:19;93621.69;;;5.94;60.89
8920;BME280;4495;42.644;23.274;2024-02-21T08:44:45;93623.56;;;6.17;60.42
8920;BME280;4495;42.644;23.274;2024-02-21T08:47:11;93632.00;;;5.99;60.28
8920;BME280;4495;42.644;23.274;2024-02-21T08:49:37;93634.47;;;6.09;60.27
8920;BME280;4495;42.644;23.274;2024-02-21T08:52:02;93626.19;;;6.12;58.40
8920;BME280;4495;42.644;23.274;2024-02-21T08:54:28;93627.81;;;5.74;60.97
8920;BME280;4495;42.644;23.274;2024-02-21T08:56:54;93632.75;;;5.70;61.02
8920;BME280;4495;42.644;23.274;2024-02-21T08:59:20;93642.44;;;5.83;61.64
8920;BME280;4495;42.644;23.274;2024-02-21T09:01:46;93638.69;;;6.00;61.30
8920;BME280;4495;42.644;23.274;2024-02-21T09:04:12;93647.78;;;5.92;60.75
8920;BME280;4495;42.644;23.274;2024-02-21T09:06:37;93637.16;;;5.94;60.94
8920;BME280;4495;42.644;23.274;2024-02-21T09:09:07;93638.44;;;6.01;60.69
8920;BME280;4495;42.644;23.274;2024-02-21T09:11:34;93636.53;;;6.12;61.26
8920;BME280;4495;42.644;23.274;2024-02-21T09:13:59;93649.38;;;6.17;59.76
8920;BME280;4495;42.644;23.274;2024-02-21T09:16:25;93648.50;;;6.27;60.67
8920;BME280;4495;42.644;23.274;2024-02-21T09:18:50;93644.09;;;6.28;59.43
8920;BME280;4495;42.644;23.274;2024-02-21T09:21:16;93643.50;;;6.36;59.96
8920;BME280;4495;42.644;23.274;2024-02-21T09:23:41;93641.69;;;6.12;58.00
8920;BME280;4495;42.644;23.274;2024-02-21T09:26:06;93633.03;;;5.98;59.36
8920;BME280;4495;42.644;23.274;2024-02-21T09:28:33;93645.56;;;6.10;59.73
8920;BME280;4495;42.644;23.274;2024-02-21T09:30:59;93644.41;;;6.21;60.12
8920;BME280;4495;42.644;23.274;2024-02-21T09:33:25;93644.22;;;6.17;59.16
8920;BME280;4495;42.644;23.274;2024-02-21T09:35:50;93638.81;;;6.14;60.47
8920;BME280;4495;42.644;23.274;2024-02-21T09:38:15;93641.25;;;6.29;59.45
8920;BME280;4495;42.644;23.274;2024-02-21T09:40:41;93639.88;;;6.13;58.83
8920;BME280;4495;42.644;23.274;2024-02-21T09:43:07;93635.66;;;5.93;59.60
8920;BME280;4495;42.644;23.274;2024-02-21T09:45:33;93646.72;;;5.98;59.41
8920;BME280;4495;42.644;23.274;2024-02-21T09:50:47;93638.38;;;6.07;58.88
8920;BME280;4495;42.644;23.274;2024-02-21T09:53:12;93634.81;;;6.27;60.12
8920;BME280;4495;42.644;23.274;2024-02-21T09:55:42;93630.81;;;6.39;60.98
8920;BME280;4495;42.644;23.274;2024-02-21T09:58:09;93640.97;;;6.55;62.18
8920;BME280;4495;42.644;23.274;2024-02-21T10:00:37;93639.00;;;6.65;59.97
8920;BME280;4495;42.644;23.274;2024-02-21T10:03:03;93639.81;;;6.66;61.08
8920;BME280;4495;42.644;23.274;2024-02-21T10:05:37;93639.66;;;6.76;57.18
8920;BME280;4495;42.644;23.274;2024-02-21T10:08:03;93643.75;;;6.34;58.24
8920;BME280;4495;42.644;23.274;2024-02-21T10:10:29;93644.59;;;6.30;58.45
8920;BME280;4495;42.644;23.274;2024-02-21T10:12:55;93626.13;;;6.41;58.00
8920;BME280;4495;42.644;23.274;2024-02-21T10:15:22;93634.16;;;6.40;58.22
8920;BME280;4495;42.644;23.274;2024-02-21T10:17:49;93630.66;;;6.74;57.31
8920;BME280;4495;42.644;23.274;2024-02-21T10:20:17;93628.06;;;6.93;55.14
8920;BME280;4495;42.644;23.274;2024-02-21T10:22:43;93627.34;;;6.68;57.29
8920;BME280;4495;42.644;23.274;2024-02-21T10:25:09;93618.56;;;6.88;55.21
8920;BME280;4495;42.644;23.274;2024-02-21T10:27:34;93613.03;;;6.95;56.34
8920;BME280;4495;42.644;23.274;2024-02-21T10:30:00;93610.25;;;6.72;56.27
8920;BME280;4495;42.644;23.274;2024-02-21T10:32:25;93606.13;;;6.90;56.25
8920;BME280;4495;42.644;23.274;2024-02-21T10:35:01;93595.59;;;6.86;56.81
8920;BME280;4495;42.644;23.274;2024-02-21T10:37:28;93602.91;;;6.60;56.29
8920;BME280;4495;42.644;23.274;2024-02-21T10:39:54;93588.38;;;6.83;56.15
8920;BME280;4495;42.644;23.274;2024-02-21T10:42:21;93581.03;;;6.72;54.79
8920;BME280;4495;42.644;23.274;2024-02-21T10:44:50;93572.88;;;6.83;54.79
8920;BME280;4495;42.644;23.274;2024-02-21T10:47:16;93573.00;;;6.92;53.87
8920;BME280;4495;42.644;23.274;2024-02-21T10:49:49;93569.63;;;7.11;54.80
8920;BME280;4495;42.644;23.274;2024-02-21T10:55:10;93550.44;;;7.31;53.16
8920;BME280;4495;42.644;23.274;2024-02-21T10:57:41;93557.25;;;7.73;51.92
8920;BME280;4495;42.644;23.274;2024-02-21T11:00:09;93566.06;;;7.72;50.80
8920;BME280;4495;42.644;23.274;2024-02-21T11:02:37;93557.81;;;7.70;50.68
8920;BME280;4495;42.644;23.274;2024-02-21T11:05:05;93543.63;;;7.54;51.32
8920;BME280;4495;42.644;23.274;2024-02-21T11:07:32;93552.81;;;7.60;50.10
8920;BME280;4495;42.644;23.274;2024-02-21T11:09:58;93550.34;;;7.82;50.13
8920;BME280;4495;42.644;23.274;2024-02-21T11:12:25;93555.72;;;7.86;51.45
8920;BME280;4495;42.644;23.274;2024-02-21T11:14:51;93539.72;;;7.98;50.16
8920;BME280;4495;42.644;23.274;2024-02-21T11:17:18;93536.25;;;8.02;49.92
8920;BME280;4495;42.644;23.274;2024-02-21T11:19:43;93537.81;;;8.03;49.10
8920;BME280;4495;42.644;23.274;2024-02-21T11:22:19;93543.53;;;7.86;51.03
8920;BME280;4495;42.644;23.274;2024-02-21T11:24:50;93542.41;;;7.93;50.45
8920;BME280;4495;42.644;23.274;2024-02-21T11:27:19;93532.16;;;7.87;51.11
8920;BME280;4495;42.644;23.274;2024-02-21T11:29:54;93538.22;;;7.50;51.12
8920;BME280;4495;42.644;23.274;2024-02-21T11:32:20;93542.47;;;7.60;50.90
8920;BME280;4495;42.644;23.274;2024-02-21T11:34:58;93536.03;;;7.71;50.27
8920;BME280;4495;42.644;23.274;2024-02-21T11:37:28;93531.06;;;7.61;49.09
8920;BME280;4495;42.644;23.274;2024-02-21T11:39:57;93531.91;;;7.42;51.52
8920;BME280;4495;42.644;23.274;2024-02-21T11:42:25;93527.66;;;7.46;49.83
8920;BME280;4495;42.644;23.274;2024-02-21T11:44:50;93523.56;;;7.13;51.06
8920;BME280;4495;42.644;23.274;2024-02-21T11:47:16;93525.44;;;6.93;52.65
8920;BME280;4495;42.644;23.274;2024-02-21T11:49:45;93524.25;;;6.85;53.01
8920;BME280;4495;42.644;23.274;2024-02-21T11:52:15;93519.13;;;6.99;53.59
8920;BME280;4495;42.644;23.274;2024-02-21T11:54:44;93515.50;;;7.00;53.71
8920;BME280;4495;42.644;23.274;2024-02-21T11:57:10;93512.06;;;7.05;53.60
8920;BME280;4495;42.644;23.274;2024-02-21T11:59:36;93511.94;;;6.96;53.46
8920;BME280;4495;42.644;23.274;2024-02-21T12:02:03;93513.41;;;7.02;53.80
8920;BME280;4495;42.644;23.274;2024-02-21T12:04:29;93517.31;;;7.00;53.57
8920;BME280;4495;42.644;23.274;2024-02-21T12:06:57;93513.75;;;6.96;53.54
8920;BME280;4495;42.644;23.274;2024-02-21T12:09:24;93505.94;;;6.82;53.09
8920;BME280;4495;42.644;23.274;2024-02-21T12:12:03;93505.88;;;6.87;52.81
8920;BME280;4495;42.644;23.274;2024-02-21T12:14:30;93507.06;;;6.76;52.78
8920;BME280;4495;42.644;23.274;2024-02-21T12:16:56;93505.25;;;6.76;53.32
8920;BME280;4495;42.644;23.274;2024-02-21T12:19:22;93506.44;;;6.84;54.21
8920;BME280;4495;42.644;23.274;2024-02-21T12:21:51;93500.84;;;6.77;54.51
8920;BME280;4495;42.644;23.274;2024-02-21T12:24:21;93494.72;;;6.73;55.75
8920;BME280;4495;42.644;23.274;2024-02-21T12:26:48;93493.03;;;6.82;55.35
8920;BME280;4495;42.644;23.274;2024-02-21T12:29:13;93498.06;;;6.73;55.75
8920;BME280;4495;42.644;23.274;2024-02-21T12:31:39;93502.47;;;6.73;56.07
8920;BME280;4495;42.644;23.274;2024-02-21T12:34:05;93498.19;;;6.63;56.03
8920;BME280;4495;42.644;23.274;2024-02-21T12:36:33;93496.19;;;6.60;56.26
8920;BME280;4495;42.644;23.274;2024-02-21T12:38:59;93493.75;;;6.69;56.33
8920;BME280;4495;42.644;23.274;2024-02-21T12:41:25;93497.00;;;6.74;56.00
8920;BME280;4495;42.644;23.274;2024-02-21T12:43:52;93486.72;;;6.88;55.40
8920;BME280;4495;42.644;23.274;2024-02-21T12:46:17;93490.63;;;6.85;55.23
8920;BME280;4495;42.644;23.274;2024-02-21T12:48:42;93495.31;;;6.83;55.29
8920;BME280;4495;42.644;23.274;2024-02-21T12:51:08;93481.84;;;6.68;54.53
8920;BME280;4495;42.644;23.274;2024-02-21T12:53:33;93477.56;;;6.77;54.76
8920;BME280;4495;42.644;23.274;2024-02-21T12:55:59;93475.13;;;6.85;53.76
8920;BME280;4495;42.644;23.274;2024-02-21T12:58:24;93476.50;;;6.97;54.43
8920;BME280;4495;42.644;23.274;2024-02-21T13:00:50;93472.63;;;7.13;54.06
8920;BME280;4495;42.644;23.274;2024-02-21T13:03:15;93471.31;;;7.29;53.67
8920;BME280;4495;42.644;23.274;2024-02-21T13:05:41;93473.84;;;7.62;52.60
8920;BME280;4495;42.644;23.274;2024-02-21T13:08:06;93465.00;;;7.49;50.83
8920;BME280;4495;42.644;23.274;2024-02-21T13:10:32;93463.66;;;7.52;51.70
8920;BME280;4495;42.644;23.274;2024-02-21T13:13:00;93467.31;;;7.79;50.49
8920;BME280;4495;42.644;23.274;2024-02-21T13:15:25;93464.22;;;7.90;50.68
8920;BME280;4495;42.644;23.274;2024-02-21T13:17:53;93461.94;;;7.75;50.44
8920;BME280;4495;42.644;23.274;2024-02-21T13:20:19;93452.72;;;7.41;51.75
8920;BME280;4495;42.644;23.274;2024-02-21T13:22:44;93458.19;;;7.40;51.27
8920;BME280;4495;42.644;23.274;2024-02-21T13:25:10;93458.97;;;7.40;53.30